CheckWX is a tool to help pilots better visualize weather data.  It is not intended as a substitute for an official pre-flight weather briefing.

16:10:12 UTC

KLGA TAF
Laguardia Airport
New York, New York, USA
KLGA 181531Z 1816/1918 32017G25KT P6SM SCT035 FM190000 32011KT P6SM SCT050 FM190900 34008KT P6SM SCT250

Oct-18@
16:00 UTC

Oct-18 @ 16:00 UTC

Oct-19@
00:00 UTC

Oct-19 @ 00:00 UTC

KLGA 181531Z 1816/1918 32017G25KT P6SM SCT035
Wind
  • 320° at 17 KTS
  • {Gusting to 25 KTS
Cloud Levels
  • Scattered at 3,500' AGL

Oct-19@
00:00 UTC

Oct-19 @ 00:00 UTC

Oct-19@
09:00 UTC

Oct-19 @ 09:00 UTC

FM190000 32011KT P6SM SCT050

From

From Standard forecast or significant change

Wind
  • 320° at 11 KTS
Cloud Levels
  • Scattered at 5,000' AGL

Oct-19@
09:00 UTC

Oct-19 @ 09:00 UTC

Oct-19@
18:00 UTC

Oct-19 @ 18:00 UTC

FM190900 34008KT P6SM SCT250

From

From Standard forecast or significant change

Wind
  • 340° at 8 KTS
Cloud Levels
  • Scattered at 25,000' AGL